Airfield :
LOGIN :

Register | Disclaimer

   EN    FR    IT 

 










Legend :    VFR   Marginal VFR   IFR   Intensive IFR   Very Intensive IFR
Visi :
Ceiling :
>= 8 km
>= 3000ft
5 to 8 km
1000 to 3000 ft
1500m to 5 km
500 to 1000 ft
800 to 1500m
200 to 500 ft
< 800m
< 200 ft
Symbols :   Thunderstorms  Fog  Heavy snow  Heavy precipitations  Wind > 20 kt
SIGMETs :     Misc.  Thunderstorms  Icing  Turbulence  Mountain Waves  Volcanic Ashes







- Airport Elevation : 172 ft
- IATA code : ODS


UKOO - Odesa

CURRENT METAR :
  • 191530Z 18005MPS CAVOK 09/03 Q1022 R16/090060 NOSIG

EXPIRED METARs :
  • 191500Z 16005MPS CAVOK 10/03 Q1022 R16/090060 NOSIG
  • 191430Z 18005MPS CAVOK 09/04 Q1022 R16/090060 NOSIG
  • 191400Z 18006MPS CAVOK 10/04 Q1022 R16/090060 NOSIG
  • 191330Z 17007MPS CAVOK 10/03 Q1022 R16/090060 NOSIG
  • 191300Z 18007MPS CAVOK 11/04 Q1022 R16/090060 NOSIG
  • 191230Z 17007MPS CAVOK 11/04 Q1022 R16/090060 NOSIG

TAF TAF UKOO
Valid from the 19 at 12:00 until the 20 at 12:00 UTC


191106Z 1912/2012 15006G12MPS 2100 BR BKN007 SCT020CB TX12/1912Z TN03/2003Z
PROB40
TEMPO 1917/1924 0300 FG VV002
BECMG 2000/2002 03003MPS
No reported NOTAMs for that airfield.



MET'MAP, your aeronautical weather chart ! - Copyright ORBIFLY December 2007 - Disclaimer

ORBIFLY MET'MAP TEAM :

Programming & Development : Alexandra Zaïnal
Concept & Development : Baudouin d'Aumeries
Co-Development & Prog : Marc-Olivier Méhu
Technical & hardware support : Manuel Goepfert

Contact : metmap@orbifly.com




SOURCES & CREDITS :

   NOAA